Time;durP1;ratioP1;P1;durP2;ratioP2;P2;SDS_P1;SDS_P2;PMS_P1;PMS_P2;Temp;Humidity;BMP_temperature;BMP_pressure;BME280_temperature;BME280_humidity;BME280_pressure;Samples;Min_cycle;Max_cycle;Signal;HPM_P1;HPM_P2
2021/01/04 00:01:10;;;;;;;1.80;1.50;;;;;;;;;;4894818;29;20049;-70
2021/01/04 00:03:50;;;;;;;1.67;1.50;;;;;;;;;;4889374;29;20060;-70
2021/01/04 00:06:16;;;;;;;2.35;1.65;;;;;;;;;;4894852;29;20127;-70
2021/01/04 00:08:55;;;;;;;2.10;1.67;;;;;;;;;;4882738;29;20041;-70
2021/01/04 00:11:30;;;;;;;2.38;1.70;;;;;;;;;;4890015;29;20048;-70
2021/01/04 00:14:05;;;;;;;2.00;1.80;;;;;;;;;;4875463;29;20072;-70
2021/01/04 00:16:48;;;;;;;1.95;1.75;;;;;;;;;;4895152;29;20048;-70
2021/01/04 00:19:19;;;;;;;2.35;1.73;;;;;;;;;;4894354;29;20053;-70
2021/01/04 00:21:52;;;;;;;2.00;1.70;;;;;;;;;;4895353;29;20493;-70
2021/01/04 00:24:38;;;;;;;2.53;2.00;;;;;;;;;;4887842;29;20430;-70
2021/01/04 00:27:14;;;;;;;3.13;1.70;;;;;;;;;;4887606;29;20099;-70
2021/01/04 00:29:40;;;;;;;2.45;1.80;;;;;;;;;;4877537;29;20100;-70
2021/01/04 00:32:15;;;;;;;2.40;1.75;;;;;;;;;;4894505;29;20049;-70
2021/01/04 00:34:43;;;;;;;1.85;1.58;;;;;;;;;;4895171;29;20401;-70
2021/01/04 00:37:09;;;;;;;2.65;1.75;;;;;;;;;;4891806;29;20077;-70
2021/01/04 00:39:46;;;;;;;1.77;1.60;;;;;;;;;;4891625;29;20119;-70
2021/01/04 00:42:21;;;;;;;1.65;1.50;;;;;;;;;;4889023;29;20052;-70
2021/01/04 00:44:56;;;;;;;1.83;1.60;;;;;;;;;;4884589;29;20060;-70
2021/01/04 00:47:26;;;;;;;1.70;1.52;;;;;;;;;;4889603;29;20084;-70
2021/01/04 00:49:58;;;;;;;1.83;1.45;;;;;;;;;;4893014;29;20044;-70
2021/01/04 00:52:39;;;;;;;3.17;1.48;;;;;;;;;;4888763;29;20037;-69
2021/01/04 00:55:10;;;;;;;2.47;1.92;;;;;;;;;;4893765;29;20052;-70
2021/01/04 00:57:55;;;;;;;1.73;1.58;;;;;;;;;;4895086;29;20053;-69
2021/01/04 01:00:26;;;;;;;1.73;1.30;;;;;;;;;;4887972;29;20379;-69
2021/01/04 01:03:03;;;;;;;2.03;1.35;;;;;;;;;;4892657;29;20045;-69
2021/01/04 01:05:41;;;;;;;1.63;1.30;;;;;;;;;;4891150;29;20116;-69
2021/01/04 01:08:19;;;;;;;1.85;1.58;;;;;;;;;;4883861;29;20046;-69
2021/01/04 01:11:05;;;;;;;1.17;1.08;;;;;;;;;;4889748;29;20111;-69
2021/01/04 01:13:50;;;;;;;1.83;1.50;;;;;;;;;;4876712;29;20104;-69
2021/01/04 01:16:21;;;;;;;1.55;1.35;;;;;;;;;;4896961;29;20136;-69
2021/01/04 01:18:48;;;;;;;1.80;1.50;;;;;;;;;;4899392;29;20045;-69
2021/01/04 01:21:14;;;;;;;1.38;1.27;;;;;;;;;;4895728;29;20055;-70
2021/01/04 01:23:41;;;;;;;3.42;1.70;;;;;;;;;;4892919;29;20112;-69
2021/01/04 01:26:10;;;;;;;1.57;1.47;;;;;;;;;;4894674;29;20049;-69
2021/01/04 01:28:39;;;;;;;2.97;1.83;;;;;;;;;;4882044;29;20669;-69
2021/01/04 01:31:05;;;;;;;3.35;1.65;;;;;;;;;;4896507;29;20513;-69
2021/01/04 01:33:31;;;;;;;1.60;1.50;;;;;;;;;;4897689;29;20046;-70
2021/01/04 01:35:57;;;;;;;1.80;1.40;;;;;;;;;;4895489;29;20100;-69
2021/01/04 01:38:46;;;;;;;2.55;1.80;;;;;;;;;;4901960;29;20037;-69
2021/01/04 01:41:22;;;;;;;3.08;1.63;;;;;;;;;;4896146;29;20055;-69
2021/01/04 01:44:04;;;;;;;2.00;1.70;;;;;;;;;;4894408;29;20041;-69
2021/01/04 01:46:34;;;;;;;1.92;1.65;;;;;;;;;;4891849;29;20062;-69
2021/01/04 01:49:22;;;;;;;2.00;1.60;;;;;;;;;;4896178;29;20052;-69
2021/01/04 01:52:07;;;;;;;2.47;1.80;;;;;;;;;;4892628;29;20109;-70
2021/01/04 01:54:55;;;;;;;2.00;1.80;;;;;;;;;;4899071;29;20502;-70
2021/01/04 01:57:24;;;;;;;2.57;1.83;;;;;;;;;;4898874;29;20047;-69
2021/01/04 02:00:06;;;;;;;2.60;1.90;;;;;;;;;;4896203;29;20052;-69
2021/01/04 02:02:38;;;;;;;3.10;1.73;;;;;;;;;;4896386;29;20060;-69
2021/01/04 02:05:07;;;;;;;2.05;1.70;;;;;;;;;;4899131;29;20564;-69
2021/01/04 02:07:55;;;;;;;2.10;1.90;;;;;;;;;;4894298;29;20041;-70
2021/01/04 02:10:27;;;;;;;1.92;1.60;;;;;;;;;;4897045;29;20044;-69
2021/01/04 02:13:02;;;;;;;1.85;1.73;;;;;;;;;;4889294;29;20052;-69
2021/01/04 02:15:47;;;;;;;3.15;2.08;;;;;;;;;;4894906;29;20044;-69
2021/01/04 02:18:34;;;;;;;1.90;1.77;;;;;;;;;;4894794;29;20378;-69
2021/01/04 02:21:00;;;;;;;2.10;1.90;;;;;;;;;;4889755;29;20057;-70
2021/01/04 02:23:45;;;;;;;2.08;1.88;;;;;;;;;;4893638;29;20120;-69
2021/01/04 02:26:23;;;;;;;1.90;1.70;;;;;;;;;;4889738;29;20111;-70
2021/01/04 02:29:06;;;;;;;2.55;2.00;;;;;;;;;;4888617;29;20569;-69
2021/01/04 02:31:34;;;;;;;2.20;2.00;;;;;;;;;;4893303;29;20094;-69
2021/01/04 02:34:00;;;;;;;;;;;;;;;;;;4885202;29;20453;-69
2021/01/04 02:36:29;;;;;;;3.03;2.10;;;;;;;;;;4893523;29;19931;-72
2021/01/04 02:39:02;;;;;;;2.75;2.10;;;;;;;;;;4889798;29;20045;-69
2021/01/04 02:41:52;;;;;;;2.55;2.08;;;;;;;;;;4887082;29;20040;-69
2021/01/04 02:44:20;;;;;;;2.30;1.90;;;;;;;;;;4889724;29;20044;-69
2021/01/04 02:46:50;;;;;;;4.05;2.00;;;;;;;;;;4892065;29;20143;-69
2021/01/04 02:49:22;;;;;;;2.55;2.10;;;;;;;;;;4890548;29;20044;-69
2021/01/04 02:51:54;;;;;;;2.90;2.40;;;;;;;;;;4889818;29;20052;-69
2021/01/04 02:54:27;;;;;;;2.22;1.90;;;;;;;;;;4893815;29;20044;-70
2021/01/04 02:56:55;;;;;;;2.60;1.85;;;;;;;;;;4890702;29;20100;-70
2021/01/04 02:59:32;;;;;;;2.22;2.03;;;;;;;;;;4894365;29;20059;-69
2021/01/04 03:02:04;;;;;;;2.75;2.00;;;;;;;;;;4895797;29;20060;-69
2021/01/04 03:04:33;;;;;;;1.83;1.52;;;;;;;;;;4894707;29;20072;-69
2021/01/04 03:07:05;;;;;;;3.13;2.03;;;;;;;;;;4893592;29;20059;-69
2021/01/04 03:09:32;;;;;;;3.20;2.22;;;;;;;;;;4892571;29;20052;-69
2021/01/04 03:11:59;;;;;;;2.60;2.20;;;;;;;;;;4893200;29;20107;-69
2021/01/04 03:14:32;;;;;;;1.70;1.48;;;;;;;;;;4890873;29;20033;-69
2021/01/04 03:17:07;;;;;;;2.58;1.98;;;;;;;;;;4891039;29;20529;-69
2021/01/04 03:19:34;;;;;;;2.10;1.60;;;;;;;;;;4892497;29;20072;-69
2021/01/04 03:22:04;;;;;;;1.92;1.70;;;;;;;;;;4895017;29;20075;-69
2021/01/04 03:24:31;;;;;;;4.03;2.13;;;;;;;;;;4889558;29;20036;-69
2021/01/04 03:27:01;;;;;;;1.93;1.77;;;;;;;;;;4897414;29;20112;-69
2021/01/04 03:29:27;;;;;;;2.00;1.80;;;;;;;;;;4892208;29;20289;-69
2021/01/04 03:31:53;;;;;;;2.58;2.10;;;;;;;;;;4893160;29;20111;-69
2021/01/04 03:34:19;;;;;;;2.78;2.15;;;;;;;;;;4894449;29;20044;-69
2021/01/04 03:36:47;;;;;;;2.65;2.00;;;;;;;;;;4880843;29;20108;-69
2021/01/04 03:39:13;;;;;;;2.85;1.50;;;;;;;;;;4875673;29;20054;-69
2021/01/04 03:41:39;;;;;;;2.42;1.95;;;;;;;;;;4893547;29;20037;-69
2021/01/04 03:44:05;;;;;;;2.67;1.70;;;;;;;;;;4892591;29;20097;-70
2021/01/04 03:46:31;;;;;;;2.35;1.73;;;;;;;;;;4889593;29;20049;-69
2021/01/04 03:48:57;;;;;;;2.42;1.88;;;;;;;;;;4894235;29;20072;-69
2021/01/04 03:51:23;;;;;;;2.00;1.67;;;;;;;;;;4891412;29;20052;-69
2021/01/04 03:53:50;;;;;;;1.95;1.60;;;;;;;;;;4896214;29;20104;-70
2021/01/04 03:56:16;;;;;;;2.40;1.95;;;;;;;;;;4893170;29;20540;-69
2021/01/04 03:58:42;;;;;;;2.60;2.10;;;;;;;;;;4895039;29;20409;-69
2021/01/04 04:01:09;;;;;;;2.10;1.90;;;;;;;;;;4889547;29;20064;-69
2021/01/04 04:03:35;;;;;;;2.65;2.00;;;;;;;;;;4889547;29;20041;-69
2021/01/04 04:06:01;;;;;;;2.50;2.10;;;;;;;;;;4891351;29;20049;-70
2021/01/04 04:08:28;;;;;;;3.75;1.92;;;;;;;;;;4892590;29;20044;-69
2021/01/04 04:10:54;;;;;;;2.85;1.83;;;;;;;;;;4894911;29;20092;-69
2021/01/04 04:13:20;;;;;;;2.00;1.70;;;;;;;;;;4896390;29;20084;-69
2021/01/04 04:15:47;;;;;;;5.82;2.00;;;;;;;;;;4890890;29;20076;-69
2021/01/04 04:18:13;;;;;;;1.87;1.67;;;;;;;;;;4893134;29;20716;-70
2021/01/04 04:20:40;;;;;;;2.10;1.90;;;;;;;;;;4894736;29;20828;-69
2021/01/04 04:23:06;;;;;;;3.67;2.00;;;;;;;;;;4894395;29;20056;-70
2021/01/04 04:25:32;;;;;;;2.03;1.80;;;;;;;;;;4887098;29;20557;-69
2021/01/04 04:27:58;;;;;;;2.22;1.70;;;;;;;;;;4886856;29;20392;-69
2021/01/04 04:30:25;;;;;;;4.40;2.20;;;;;;;;;;4891914;29;20055;-69
2021/01/04 04:32:52;;;;;;;1.90;1.70;;;;;;;;;;4893643;29;20048;-69
2021/01/04 04:35:18;;;;;;;4.47;1.70;;;;;;;;;;4892235;29;20048;-69
2021/01/04 04:37:44;;;;;;;2.40;1.60;;;;;;;;;;4890585;29;20075;-69
2021/01/04 04:40:15;;;;;;;4.22;2.17;;;;;;;;;;4892949;29;20103;-69
2021/01/04 04:42:41;;;;;;;3.13;1.90;;;;;;;;;;4892978;29;20048;-69
2021/01/04 04:45:12;;;;;;;2.45;2.03;;;;;;;;;;4890701;29;20048;-69
2021/01/04 04:47:57;;;;;;;2.25;2.05;;;;;;;;;;4889440;29;20060;-69
2021/01/04 04:50:42;;;;;;;1.73;1.60;;;;;;;;;;4893334;29;20060;-69
2021/01/04 04:53:14;;;;;;;2.28;1.88;;;;;;;;;;4897869;29;20037;-69
2021/01/04 04:55:59;;;;;;;2.35;1.88;;;;;;;;;;4880406;29;20141;-70
2021/01/04 04:58:31;;;;;;;1.92;1.60;;;;;;;;;;4894227;29;20045;-69
2021/01/04 05:01:10;;;;;;;2.08;1.88;;;;;;;;;;4901574;29;20041;-69
2021/01/04 05:03:51;;;;;;;2.47;1.90;;;;;;;;;;4897026;29;20063;-69
2021/01/04 05:06:23;;;;;;;2.10;1.73;;;;;;;;;;4894309;29;20045;-69
2021/01/04 05:08:52;;;;;;;2.10;1.90;;;;;;;;;;4903063;29;20477;-69
2021/01/04 05:11:21;;;;;;;1.95;1.65;;;;;;;;;;4897814;29;20508;-69
2021/01/04 05:13:50;;;;;;;2.28;1.95;;;;;;;;;;4900698;29;20048;-69
2021/01/04 05:16:24;;;;;;;2.65;1.80;;;;;;;;;;4899878;29;20036;-69
2021/01/04 05:19:13;;;;;;;4.68;1.73;;;;;;;;;;4881492;29;20045;-69
2021/01/04 05:22:01;;;;;;;2.83;1.95;;;;;;;;;;4899323;29;20044;-69
2021/01/04 05:24:37;;;;;;;2.50;2.10;;;;;;;;;;4895517;29;20071;-69
2021/01/04 05:27:12;;;;;;;2.10;1.75;;;;;;;;;;4899435;29;20049;-69
2021/01/04 05:29:48;;;;;;;2.47;1.73;;;;;;;;;;4897020;29;20104;-69
2021/01/04 05:32:20;;;;;;;3.03;1.83;;;;;;;;;;4896843;29;20049;-69
2021/01/04 05:35:06;;;;;;;2.20;1.73;;;;;;;;;;4894971;29;20496;-69
2021/01/04 05:37:45;;;;;;;2.03;1.83;;;;;;;;;;4896837;29;20052;-70
2021/01/04 05:40:30;;;;;;;3.80;2.10;;;;;;;;;;4896910;29;20059;-69
2021/01/04 05:43:00;;;;;;;2.70;2.00;;;;;;;;;;4895984;29;20040;-69
2021/01/04 05:45:50;;;;;;;2.45;1.88;;;;;;;;;;4892087;29;20124;-69
2021/01/04 05:48:23;;;;;;;2.03;1.77;;;;;;;;;;4896286;29;20048;-69
2021/01/04 05:50:49;;;;;;;2.50;1.75;;;;;;;;;;4896291;29;20837;-69
2021/01/04 05:53:15;;;;;;;2.35;1.80;;;;;;;;;;4896365;29;20126;-70
2021/01/04 05:55:42;;;;;;;2.45;1.63;;;;;;;;;;4900328;29;20104;-69
2021/01/04 05:58:12;;;;;;;4.47;1.95;;;;;;;;;;4901972;29;20060;-70
2021/01/04 06:00:38;;;;;;;1.95;1.70;;;;;;;;;;4900943;29;20051;-69
2021/01/04 06:03:14;;;;;;;2.75;1.67;;;;;;;;;;4893545;29;20454;-69
2021/01/04 06:05:41;;;;;;;3.35;1.80;;;;;;;;;;4894098;29;20072;-70
2021/01/04 06:08:19;;;;;;;2.00;1.80;;;;;;;;;;4898064;29;20128;-69
2021/01/04 06:10:45;;;;;;;2.05;1.65;;;;;;;;;;4883715;29;20076;-69
2021/01/04 06:13:17;;;;;;;1.50;1.40;;;;;;;;;;4893788;29;20048;-69
2021/01/04 06:15:43;;;;;;;3.25;1.50;;;;;;;;;;4891655;29;20049;-69
2021/01/04 06:18:18;;;;;;;2.53;1.80;;;;;;;;;;4894166;29;20505;-70
2021/01/04 06:20:44;;;;;;;2.40;1.70;;;;;;;;;;4891468;29;20045;-69
2021/01/04 06:23:11;;;;;;;1.85;1.40;;;;;;;;;;4893576;29;20053;-69
2021/01/04 06:25:37;;;;;;;2.08;1.20;;;;;;;;;;4890637;29;20052;-69
2021/01/04 06:28:05;;;;;;;3.00;1.50;;;;;;;;;;4889629;29;20041;-70
2021/01/04 06:30:34;;;;;;;3.80;1.20;;;;;;;;;;4894209;29;20028;-70
2021/01/04 06:33:24;;;;;;;1.88;1.15;;;;;;;;;;4888120;29;20143;-69
2021/01/04 06:35:59;;;;;;;2.60;1.05;;;;;;;;;;4893085;29;20072;-69
2021/01/04 06:38:27;;;;;;;1.83;1.20;;;;;;;;;;4892867;29;20096;-69
2021/01/04 06:40:53;;;;;;;1.25;1.13;;;;;;;;;;4896253;29;20424;-69
2021/01/04 06:43:23;;;;;;;1.15;1.00;;;;;;;;;;4881077;29;20064;-69
2021/01/04 06:45:55;;;;;;;0.95;0.90;;;;;;;;;;4893538;29;20513;-69
2021/01/04 06:48:29;;;;;;;0.95;0.85;;;;;;;;;;4893816;29;20060;-69
2021/01/04 06:51:17;;;;;;;0.85;0.85;;;;;;;;;;4892000;29;20489;-70
2021/01/04 06:53:53;;;;;;;2.75;1.17;;;;;;;;;;4893252;29;20045;-69
2021/01/04 06:56:19;;;;;;;1.13;1.00;;;;;;;;;;4896826;29;20048;-69
2021/01/04 06:59:01;;;;;;;3.75;1.10;;;;;;;;;;4893338;29;20070;-69
2021/01/04 07:01:28;;;;;;;1.15;1.05;;;;;;;;;;4894366;29;20052;-70
2021/01/04 07:04:11;;;;;;;1.35;0.95;;;;;;;;;;4893802;29;20424;-69
2021/01/04 07:06:55;;;;;;;1.10;1.00;;;;;;;;;;4892829;29;20973;-69
2021/01/04 07:09:37;;;;;;;1.83;1.10;;;;;;;;;;4893787;29;20056;-69
2021/01/04 07:12:23;;;;;;;1.60;0.88;;;;;;;;;;4888105;29;20140;-69
2021/01/04 07:15:07;;;;;;;2.10;1.20;;;;;;;;;;4890988;29;20116;-69
2021/01/04 07:17:40;;;;;;;1.33;0.82;;;;;;;;;;4893500;29;20116;-69
2021/01/04 07:20:24;;;;;;;1.38;1.00;;;;;;;;;;4892656;29;20053;-69
2021/01/04 07:23:11;;;;;;;2.17;1.00;;;;;;;;;;4894101;29;20060;-70
2021/01/04 07:25:41;;;;;;;4.78;0.93;;;;;;;;;;4886395;29;20073;-69
2021/01/04 07:28:17;;;;;;;2.10;1.38;;;;;;;;;;4893829;29;20093;-69
2021/01/04 07:30:47;;;;;;;2.75;1.30;;;;;;;;;;4892822;29;20505;-69
2021/01/04 07:33:22;;;;;;;1.77;1.30;;;;;;;;;;4890646;29;20049;-69
2021/01/04 07:35:56;;;;;;;2.92;2.00;;;;;;;;;;4889133;29;20053;-69
2021/01/04 07:38:31;;;;;;;2.13;1.48;;;;;;;;;;4893425;29;20417;-69
2021/01/04 07:41:05;;;;;;;2.13;1.90;;;;;;;;;;4896035;29;20502;-69
2021/01/04 07:43:34;;;;;;;2.38;1.60;;;;;;;;;;4889772;29;20112;-69
2021/01/04 07:46:06;;;;;;;1.40;1.30;;;;;;;;;;4891146;29;20048;-70
2021/01/04 07:48:52;;;;;;;1.90;1.27;;;;;;;;;;4872608;29;20544;-69
2021/01/04 07:51:31;;;;;;;2.67;1.75;;;;;;;;;;4895392;29;20044;-69
2021/01/04 07:54:12;;;;;;;1.85;1.42;;;;;;;;;;4884482;29;20066;-69
2021/01/04 07:56:58;;;;;;;2.95;1.33;;;;;;;;;;4895664;29;20044;-69
2021/01/04 07:59:40;;;;;;;2.20;1.35;;;;;;;;;;4883451;29;20123;-69
2021/01/04 08:02:20;;;;;;;2.45;1.58;;;;;;;;;;4889530;29;20327;-69
2021/01/04 08:04:55;;;;;;;4.28;1.63;;;;;;;;;;4889315;29;20056;-69
2021/01/04 08:07:52;;;;;;;2.10;1.48;;;;;;;;;;4892377;29;20040;-69
2021/01/04 08:10:28;;;;;;;1.77;1.20;;;;;;;;;;4892089;29;20448;-70
2021/01/04 08:13:15;;;;;;;2.13;1.50;;;;;;;;;;4891555;29;20040;-69
2021/01/04 08:15:48;;;;;;;2.58;1.52;;;;;;;;;;4873907;29;20104;-69
2021/01/04 08:18:18;;;;;;;2.00;1.27;;;;;;;;;;4871721;29;20610;-69
2021/01/04 08:20:44;;;;;;;2.00;1.38;;;;;;;;;;4884065;29;20075;-69
2021/01/04 08:23:26;;;;;;;3.60;1.27;;;;;;;;;;4890709;29;20068;-69
2021/01/04 08:26:11;;;;;;;1.55;1.30;;;;;;;;;;4890373;29;20409;-69
2021/01/04 08:28:37;;;;;;;2.20;1.50;;;;;;;;;;4868745;29;20053;-69
2021/01/04 08:31:14;;;;;;;2.63;1.50;;;;;;;;;;4888793;29;20100;-69
2021/01/04 08:33:44;;;;;;;1.92;1.20;;;;;;;;;;4890108;29;20056;-69
2021/01/04 08:36:21;;;;;;;3.30;1.40;;;;;;;;;;4883467;29;20079;-69
2021/01/04 08:38:48;;;;;;;4.00;1.55;;;;;;;;;;4887230;29;20060;-69
2021/01/04 08:41:17;;;;;;;2.08;1.65;;;;;;;;;;4895382;29;20049;-70
2021/01/04 08:43:45;;;;;;;2.88;1.67;;;;;;;;;;4884449;29;20068;-69
2021/01/04 08:46:24;;;;;;;1.48;1.25;;;;;;;;;;4894124;29;20039;-69
2021/01/04 08:49:10;;;;;;;2.90;1.30;;;;;;;;;;4895207;29;20045;-69
2021/01/04 08:51:39;;;;;;;2.10;1.23;;;;;;;;;;4893675;29;20509;-69
2021/01/04 08:54:11;;;;;;;2.08;1.17;;;;;;;;;;4891483;29;20525;-69
2021/01/04 08:56:42;;;;;;;2.90;1.27;;;;;;;;;;4889012;29;20044;-69
2021/01/04 08:59:20;;;;;;;1.70;1.02;;;;;;;;;;4884174;29;20044;-70
2021/01/04 09:01:50;;;;;;;1.60;1.30;;;;;;;;;;4882308;29;20119;-70
2021/01/04 09:04:25;;;;;;;2.25;1.67;;;;;;;;;;4883123;29;20048;-69
2021/01/04 09:07:02;;;;;;;1.70;1.10;;;;;;;;;;4884199;29;20097;-69
2021/01/04 09:09:35;;;;;;;1.95;1.23;;;;;;;;;;4887813;29;20044;-70
2021/01/04 09:12:25;;;;;;;1.35;1.10;;;;;;;;;;4874203;29;20040;-69
2021/01/04 09:14:53;;;;;;;2.60;1.17;;;;;;;;;;4891313;29;20057;-69
2021/01/04 09:17:25;;;;;;;1.30;1.20;;;;;;;;;;4889412;29;20057;-70
2021/01/04 09:20:02;;;;;;;1.77;1.30;;;;;;;;;;4883723;29;20063;-70
2021/01/04 09:22:28;;;;;;;1.13;0.95;;;;;;;;;;4885769;29;20072;-70
2021/01/04 09:24:54;;;;;;;3.63;0.98;;;;;;;;;;4891263;29;20089;-69
2021/01/04 09:27:41;;;;;;;1.05;0.90;;;;;;;;;;4890488;29;20044;-69
2021/01/04 09:30:08;;;;;;;1.23;0.70;;;;;;;;;;4883355;29;20424;-69
2021/01/04 09:32:37;;;;;;;1.25;1.00;;;;;;;;;;4894582;29;20100;-69
2021/01/04 09:35:06;;;;;;;2.50;1.50;;;;;;;;;;4886776;29;20052;-70
2021/01/04 09:37:47;;;;;;;4.50;1.45;;;;;;;;;;4887721;29;20057;-69
2021/01/04 09:40:17;;;;;;;1.55;1.33;;;;;;;;;;4891205;29;20041;-69
2021/01/04 09:42:43;;;;;;;1.85;1.38;;;;;;;;;;4892933;29;20083;-69
2021/01/04 09:45:15;;;;;;;14.35;2.00;;;;;;;;;;4891361;29;20063;-69
2021/01/04 09:47:58;;;;;;;3.03;1.67;;;;;;;;;;4889683;29;20108;-69
2021/01/04 09:50:29;;;;;;;2.63;1.73;;;;;;;;;;4894565;29;20433;-69
2021/01/04 09:53:01;;;;;;;3.00;1.80;;;;;;;;;;4892826;29;20132;-69
2021/01/04 09:55:30;;;;;;;4.25;1.90;;;;;;;;;;4887214;29;20033;-70
2021/01/04 09:58:00;;;;;;;2.03;1.58;;;;;;;;;;4887054;29;20111;-69
2021/01/04 10:00:29;;;;;;;3.03;1.88;;;;;;;;;;4887425;29;20056;-69
2021/01/04 10:03:04;;;;;;;3.70;1.95;;;;;;;;;;4889399;29;20049;-69
2021/01/04 10:05:38;;;;;;;3.08;1.88;;;;;;;;;;4889871;29;20056;-70
2021/01/04 10:08:06;;;;;;;2.83;1.80;;;;;;;;;;4892151;29;20139;-69
2021/01/04 10:10:32;;;;;;;3.22;1.90;;;;;;;;;;4891731;29;20048;-69
2021/01/04 10:13:08;;;;;;;3.05;1.80;;;;;;;;;;4891685;29;20121;-69
2021/01/04 10:15:34;;;;;;;6.15;2.85;;;;;;;;;;4893464;29;20044;-69
2021/01/04 10:18:04;;;;;;;5.88;3.17;;;;;;;;;;4890005;29;20443;-70
2021/01/04 10:20:37;;;;;;;5.90;3.40;;;;;;;;;;4892278;29;20052;-70
2021/01/04 10:23:04;;;;;;;4.05;2.72;;;;;;;;;;4889518;29;20060;-69
2021/01/04 10:25:35;;;;;;;7.38;3.40;;;;;;;;;;4893408;29;20468;-69
2021/01/04 10:28:02;;;;;;;6.72;3.33;;;;;;;;;;4894608;29;20394;-71
2021/01/04 10:30:29;;;;;;;5.22;2.58;;;;;;;;;;4893102;29;20041;-70
2021/01/04 10:33:20;;;;;;;5.10;2.70;;;;;;;;;;4887820;29;20041;-69
2021/01/04 10:36:03;;;;;;;8.68;2.55;;;;;;;;;;4888262;29;20053;-69
2021/01/04 10:38:30;;;;;;;5.05;2.63;;;;;;;;;;4894970;29;20036;-69
2021/01/04 10:40:58;;;;;;;5.65;2.38;;;;;;;;;;4893136;29;20157;-70
2021/01/04 10:43:26;;;;;;;4.35;2.25;;;;;;;;;;4880702;29;20049;-69
2021/01/04 10:46:03;;;;;;;;;;;;;;;;;;4895681;29;20057;-69
2021/01/04 10:48:30;;;;;;;5.03;2.00;;;;;;;;;;4890594;29;19928;-69
2021/01/04 10:50:58;;;;;;;5.77;2.57;;;;;;;;;;4894691;29;20129;-69
2021/01/04 10:53:23;;;;;;;;;;;;;;;;;;4897804;29;20297;-69
2021/01/04 10:55:51;;;;;;;4.60;2.10;;;;;;;;;;4893722;29;19924;-69
2021/01/04 10:58:23;;;;;;;3.75;2.03;;;;;;;;;;4894251;29;20560;-69
2021/01/04 11:00:54;;;;;;;5.03;2.03;;;;;;;;;;4892098;29;20061;-70
2021/01/04 11:03:20;;;;;;;2.88;1.85;;;;;;;;;;4896108;29;20576;-70
2021/01/04 11:05:49;;;;;;;5.35;2.03;;;;;;;;;;4894420;29;20124;-69
2021/01/04 11:08:15;;;;;;;2.90;1.85;;;;;;;;;;4895475;29;20404;-71
2021/01/04 11:10:56;;;;;;;4.18;2.03;;;;;;;;;;4888787;29;20488;-71
2021/01/04 11:13:27;;;;;;;6.82;2.20;;;;;;;;;;4891499;29;20045;-71
2021/01/04 11:16:05;;;;;;;4.85;2.00;;;;;;;;;;4888354;29;20108;-71
2021/01/04 11:18:33;;;;;;;3.03;1.83;;;;;;;;;;4889672;29;20050;-71
2021/01/04 11:20:59;;;;;;;2.17;1.38;;;;;;;;;;4892657;29;20044;-71
2021/01/04 11:23:26;;;;;;;2.30;1.80;;;;;;;;;;4891127;29;20053;-71
2021/01/04 11:25:52;;;;;;;1.73;1.40;;;;;;;;;;4898292;29;20457;-71
2021/01/04 11:32:30;;;;;;;1.85;1.50;;;;;;;;;;4898982;29;20044;-71
2021/01/04 11:35:16;;;;;;;3.67;1.92;;;;;;;;;;4898820;29;20041;-71
2021/01/04 11:37:53;;;;;;;1.70;1.52;;;;;;;;;;4894518;29;20052;-71
2021/01/04 11:40:19;;;;;;;3.47;1.73;;;;;;;;;;4894122;29;20041;-71
2021/01/04 11:42:45;;;;;;;2.15;1.33;;;;;;;;;;4896222;29;20054;-71
2021/01/04 11:45:13;;;;;;;2.50;1.63;;;;;;;;;;4896288;29;20056;-71
2021/01/04 11:47:39;;;;;;;2.90;1.70;;;;;;;;;;4886995;29;20051;-71
2021/01/04 11:50:08;;;;;;;3.83;1.75;;;;;;;;;;4895172;29;20061;-71
2021/01/04 11:52:34;;;;;;;2.67;1.77;;;;;;;;;;4895722;29;20178;-71
2021/01/04 11:55:00;;;;;;;3.83;1.70;;;;;;;;;;4889631;29;20064;-71
2021/01/04 11:57:26;;;;;;;3.00;1.70;;;;;;;;;;4889890;29;20143;-71
2021/01/04 11:59:53;;;;;;;3.28;1.73;;;;;;;;;;4891425;29;20045;-71
2021/01/04 12:02:19;;;;;;;4.38;1.80;;;;;;;;;;4891674;29;20044;-71
2021/01/04 12:04:46;;;;;;;3.92;1.85;;;;;;;;;;4892612;29;20611;-71
2021/01/04 12:07:12;;;;;;;3.10;1.95;;;;;;;;;;4892999;29;20079;-71
2021/01/04 12:09:38;;;;;;;3.90;1.70;;;;;;;;;;4887949;29;20127;-71
2021/01/04 12:12:05;;;;;;;2.58;1.77;;;;;;;;;;4892437;29;20036;-71
2021/01/04 12:14:31;;;;;;;5.60;1.77;;;;;;;;;;4876221;29;20041;-71
2021/01/04 12:17:06;;;;;;;3.05;1.65;;;;;;;;;;4892268;29;20064;-71
2021/01/04 12:19:33;;;;;;;2.97;1.67;;;;;;;;;;4877525;29;20064;-71
2021/01/04 12:22:00;;;;;;;1.65;1.55;;;;;;;;;;4892063;29;20057;-71
2021/01/04 12:24:27;;;;;;;1.85;1.70;;;;;;;;;;4888550;29;20044;-71
2021/01/04 12:26:53;;;;;;;4.28;1.70;;;;;;;;;;4895544;29;20497;-71
2021/01/04 12:29:19;;;;;;;3.10;1.70;;;;;;;;;;4895788;29;20528;-71
2021/01/04 12:31:45;;;;;;;2.70;1.80;;;;;;;;;;4896156;29;20080;-72
2021/01/04 12:34:12;;;;;;;3.08;1.60;;;;;;;;;;4892263;29;20045;-71
2021/01/04 12:36:38;;;;;;;2.60;2.05;;;;;;;;;;4890733;29;20064;-72
2021/01/04 12:39:08;;;;;;;3.33;1.67;;;;;;;;;;4875802;29;20148;-71
2021/01/04 12:41:40;;;;;;;1.88;1.65;;;;;;;;;;4887864;29;20037;-71
2021/01/04 12:44:08;;;;;;;4.38;2.00;;;;;;;;;;4887815;29;20097;-71
2021/01/04 12:46:34;;;;;;;6.32;1.85;;;;;;;;;;4893520;29;20471;-71
2021/01/04 12:49:02;;;;;;;2.42;1.80;;;;;;;;;;4889977;29;20043;-71
2021/01/04 12:51:29;;;;;;;4.43;1.70;;;;;;;;;;4892137;29;20045;-71
2021/01/04 12:53:55;;;;;;;6.00;1.90;;;;;;;;;;4891229;29;20553;-71
2021/01/04 12:56:22;;;;;;;3.10;1.90;;;;;;;;;;4891418;29;20516;-72
2021/01/04 12:58:48;;;;;;;3.72;1.73;;;;;;;;;;4890235;29;20061;-69
2021/01/04 13:01:17;;;;;;;2.75;1.50;;;;;;;;;;4889800;29;20066;-71
2021/01/04 13:03:44;;;;;;;10.05;2.08;;;;;;;;;;4885665;29;20043;-71
2021/01/04 13:06:17;;;;;;;3.17;1.77;;;;;;;;;;4888676;29;20059;-71
2021/01/04 13:08:43;;;;;;;2.05;1.80;;;;;;;;;;4887818;29;20052;-72
2021/01/04 13:11:10;;;;;;;2.03;1.63;;;;;;;;;;4891923;29;20390;-71
2021/01/04 13:13:36;;;;;;;2.70;1.50;;;;;;;;;;4894087;29;21027;-71
2021/01/04 13:16:02;;;;;;;3.25;1.73;;;;;;;;;;4897093;29;20041;-71
2021/01/04 13:18:28;;;;;;;2.13;1.80;;;;;;;;;;4893233;29;20056;-71
2021/01/04 13:20:54;;;;;;;2.17;1.80;;;;;;;;;;4893750;29;20048;-71
2021/01/04 13:23:20;;;;;;;2.20;1.60;;;;;;;;;;4895348;29;20543;-71
2021/01/04 13:25:46;;;;;;;3.10;1.88;;;;;;;;;;4891309;29;20060;-71
2021/01/04 13:28:12;;;;;;;2.42;1.67;;;;;;;;;;4899725;29;20045;-71
2021/01/04 13:30:38;;;;;;;3.63;1.92;;;;;;;;;;4895146;29;20041;-72
2021/01/04 13:33:04;;;;;;;2.95;2.05;;;;;;;;;;4898675;29;20044;-71
2021/01/04 13:35:30;;;;;;;3.28;2.20;;;;;;;;;;4892240;29;20532;-71
2021/01/04 13:37:56;;;;;;;3.67;2.20;;;;;;;;;;4895608;29;20410;-71
2021/01/04 13:40:23;;;;;;;4.00;2.10;;;;;;;;;;4899725;29;20041;-71
2021/01/04 13:42:58;;;;;;;5.88;2.85;;;;;;;;;;4893661;29;20717;-71
2021/01/04 13:45:24;;;;;;;3.58;2.00;;;;;;;;;;4895533;29;20092;-71
2021/01/04 13:47:51;;;;;;;2.58;2.20;;;;;;;;;;4894704;29;20143;-72
2021/01/04 13:50:17;;;;;;;5.00;2.60;;;;;;;;;;4898205;29;20048;-71
2021/01/04 13:52:43;;;;;;;3.97;2.35;;;;;;;;;;4898334;29;20127;-71
2021/01/04 13:55:10;;;;;;;2.53;2.15;;;;;;;;;;4894900;29;20040;-71
2021/01/04 13:57:36;;;;;;;2.83;2.20;;;;;;;;;;4896776;29;20080;-71
2021/01/04 14:00:03;;;;;;;5.53;2.55;;;;;;;;;;4894649;29;20036;-71
2021/01/04 14:02:32;;;;;;;3.75;2.20;;;;;;;;;;4895875;29;20054;-69
2021/01/04 14:04:58;;;;;;;6.30;2.70;;;;;;;;;;4889102;29;20040;-71
2021/01/04 14:07:24;;;;;;;3.25;2.28;;;;;;;;;;4894731;29;20515;-69
2021/01/04 14:09:51;;;;;;;4.65;2.80;;;;;;;;;;4890472;29;20060;-71
2021/01/04 14:12:17;;;;;;;4.05;2.83;;;;;;;;;;4889713;29;20407;-71
2021/01/04 14:14:43;;;;;;;4.72;2.78;;;;;;;;;;4897804;29;20131;-71
2021/01/04 14:17:09;;;;;;;4.55;2.70;;;;;;;;;;4897843;29;20052;-71
2021/01/04 14:19:35;;;;;;;5.20;3.38;;;;;;;;;;4894302;29;20045;-71
2021/01/04 14:22:02;;;;;;;5.70;3.25;;;;;;;;;;4873779;29;20139;-71
2021/01/04 14:24:28;;;;;;;7.53;2.88;;;;;;;;;;4891681;29;20048;-71
2021/01/04 14:27:02;;;;;;;4.82;3.05;;;;;;;;;;4889971;29;20124;-71
2021/01/04 14:29:31;;;;;;;4.00;2.92;;;;;;;;;;4891132;29;20056;-71
2021/01/04 14:31:58;;;;;;;3.58;2.50;;;;;;;;;;4891631;29;20044;-72
2021/01/04 14:34:25;;;;;;;4.03;2.53;;;;;;;;;;4891971;29;20112;-71
2021/01/04 14:36:51;;;;;;;4.50;2.53;;;;;;;;;;4892232;29;20056;-71
2021/01/04 14:39:17;;;;;;;5.22;2.58;;;;;;;;;;4890903;29;20039;-71
2021/01/04 14:41:43;;;;;;;4.63;2.20;;;;;;;;;;4877620;29;20056;-71
2021/01/04 14:44:13;;;;;;;3.92;2.47;;;;;;;;;;4888704;29;20069;-71
2021/01/04 14:46:39;;;;;;;3.67;2.90;;;;;;;;;;4892210;29;20052;-71
2021/01/04 14:49:06;;;;;;;4.72;2.75;;;;;;;;;;4887099;29;20097;-71
2021/01/04 14:51:32;;;;;;;4.33;2.17;;;;;;;;;;4888650;29;20524;-71
2021/01/04 14:53:58;;;;;;;4.30;2.88;;;;;;;;;;4891042;29;20524;-71
2021/01/04 14:56:26;;;;;;;4.28;3.08;;;;;;;;;;4893514;29;20140;-71
2021/01/04 14:58:52;;;;;;;5.35;3.13;;;;;;;;;;4895435;29;20048;-71
2021/01/04 15:01:19;;;;;;;5.30;3.00;;;;;;;;;;4878078;29;20041;-71
2021/01/04 15:03:45;;;;;;;4.55;2.90;;;;;;;;;;4891199;29;20120;-71
2021/01/04 15:06:15;;;;;;;6.70;2.90;;;;;;;;;;4889645;29;20053;-71
2021/01/04 15:08:41;;;;;;;6.28;2.90;;;;;;;;;;4895064;29;20104;-71
2021/01/04 15:11:07;;;;;;;4.60;3.13;;;;;;;;;;4889506;29;20045;-71
2021/01/04 15:13:34;;;;;;;4.65;3.20;;;;;;;;;;4894605;29;20064;-71